Time;durP1;ratioP1;P1;durP2;ratioP2;P2;SDS_P1;SDS_P2;PMS_P1;PMS_P2;Temp;Humidity;BMP_temperature;BMP_pressure;BME280_temperature;BME280_humidity;BME280_pressure;Samples;Min_cycle;Max_cycle;Signal;HPM_P1;HPM_P2
2022/12/14 00:01:24;;;;;;;0.77;0.77;;;-4.60;99.90;;;;;;5056087;28;19917;-73
2022/12/14 00:03:51;;;;;;;0.90;0.90;;;-4.60;99.90;;;;;;5055093;28;20051;-74
2022/12/14 00:06:25;;;;;;;0.90;0.90;;;-4.10;99.90;;;;;;5040270;28;20028;-74
2022/12/14 00:08:53;;;;;;;0.85;0.85;;;-4.70;99.90;;;;;;5055449;28;20060;-74
2022/12/14 00:11:21;;;;;;;1.60;1.50;;;-4.70;99.90;;;;;;5065904;28;20268;-74
2022/12/14 00:13:52;;;;;;;0.80;0.80;;;-4.70;99.90;;;;;;5060834;28;20382;-74
2022/12/14 00:16:18;;;;;;;0.70;0.70;;;-4.70;99.90;;;;;;5050387;28;20041;-74
2022/12/14 00:18:47;;;;;;;;;;;-4.70;99.90;;;;;;5044470;28;20047;-74
2022/12/14 00:21:13;;;;;;;1.00;1.00;;;-4.80;99.90;;;;;;5059085;28;20011;-74
2022/12/14 00:23:40;;;;;;;;;;;-4.90;99.90;;;;;;5048628;28;20389;-74
2022/12/14 00:26:15;;;;;;;0.90;0.90;;;-5.00;99.90;;;;;;5056079;28;19927;-74
2022/12/14 00:28:41;;;;;;;0.82;0.82;;;-5.10;99.90;;;;;;5045324;28;20048;-73
2022/12/14 00:31:08;;;;;;;1.55;1.45;;;-5.20;99.90;;;;;;5052940;28;20068;-73
2022/12/14 00:33:35;;;;;;;0.90;0.90;;;-5.30;99.90;;;;;;5049749;28;20448;-74
2022/12/14 00:36:02;;;;;;;0.90;0.90;;;-5.40;99.90;;;;;;5049215;28;20067;-73
2022/12/14 00:38:28;;;;;;;0.80;0.80;;;-5.50;99.90;;;;;;5045912;28;20044;-73
2022/12/14 00:40:54;;;;;;;;;;;-5.50;99.90;;;;;;5047990;28;20052;-73
2022/12/14 00:43:23;;;;;;;1.65;1.58;;;-5.60;99.90;;;;;;5045755;28;20007;-74
2022/12/14 00:45:49;;;;;;;1.17;1.17;;;-5.10;99.90;;;;;;5052115;28;20047;-74
2022/12/14 00:48:18;;;;;;;0.80;0.80;;;-5.60;99.90;;;;;;5046868;28;20045;-74
2022/12/14 00:50:51;;;;;;;0.80;0.80;;;-5.50;99.90;;;;;;5048799;28;20172;-74
2022/12/14 00:53:21;;;;;;;0.90;0.90;;;-5.40;99.90;;;;;;5048992;28;20041;-74
2022/12/14 00:55:47;;;;;;;0.77;0.77;;;-5.50;99.90;;;;;;5049950;28;20192;-74
2022/12/14 00:58:15;;;;;;;0.90;0.90;;;-5.50;99.90;;;;;;5049527;28;20079;-74
2022/12/14 01:00:43;;;;;;;0.90;0.90;;;-5.60;99.90;;;;;;5048171;28;20068;-74
2022/12/14 01:03:11;;;;;;;0.90;0.90;;;-5.70;99.90;;;;;;5046857;28;20064;-75
2022/12/14 01:05:39;;;;;;;1.00;1.00;;;-5.80;99.90;;;;;;5049680;28;20123;-73
2022/12/14 01:08:07;;;;;;;;;;;-5.80;99.90;;;;;;5045650;28;20688;-73
2022/12/14 01:10:33;;;;;;;0.90;0.90;;;-5.80;99.90;;;;;;5046943;28;20357;-73
2022/12/14 01:13:00;;;;;;;0.90;0.90;;;-5.90;99.90;;;;;;5044858;28;20127;-75
2022/12/14 01:15:29;;;;;;;0.80;0.80;;;-5.90;99.90;;;;;;5051994;28;20040;-74
2022/12/14 01:17:56;;;;;;;;;;;-6.00;99.90;;;;;;5060797;28;20037;-73
2022/12/14 01:20:21;;;;;;;1.00;1.00;;;-6.00;99.90;;;;;;5047008;28;19920;-74
2022/12/14 01:22:52;;;;;;;0.80;0.80;;;-6.10;99.90;;;;;;5045510;28;20036;-74
2022/12/14 01:25:17;;;;;;;1.00;1.00;;;-6.20;99.90;;;;;;5050244;28;20121;-74
2022/12/14 01:27:43;;;;;;;;;;;-6.20;99.90;;;;;;5048469;28;20131;-74
2022/12/14 01:30:09;;;;;;;0.80;0.80;;;-6.30;99.90;;;;;;5044141;28;19927;-74
2022/12/14 01:32:35;;;;;;;0.95;0.95;;;-6.30;99.90;;;;;;5057564;28;20037;-75
2022/12/14 01:35:00;;;;;;;;;;;-6.50;99.90;;;;;;5014486;28;20044;-73
2022/12/14 01:37:27;;;;;;;0.90;0.90;;;-6.50;99.90;;;;;;5045246;28;20003;-74
2022/12/14 01:39:59;;;;;;;0.90;0.90;;;-6.60;99.90;;;;;;5044666;28;20045;-74
2022/12/14 01:42:24;;;;;;;1.00;1.00;;;-6.70;99.90;;;;;;5056790;28;20037;-74
2022/12/14 01:44:53;;;;;;;;;;;-6.80;99.90;;;;;;5033393;28;20504;-74
2022/12/14 01:47:39;;;;;;;0.95;0.95;;;-6.80;99.90;;;;;;5044971;28;19948;-74
2022/12/14 01:50:14;;;;;;;0.90;0.90;;;-6.90;99.90;;;;;;5044654;28;20553;-72
2022/12/14 01:52:43;;;;;;;1.13;1.05;;;-6.90;99.90;;;;;;5060323;28;20044;-73
2022/12/14 01:55:26;;;;;;;1.00;1.00;;;-7.00;99.90;;;;;;5049929;28;20085;-74
2022/12/14 01:58:00;;;;;;;1.00;1.00;;;-7.00;99.90;;;;;;5045758;28;20052;-74
2022/12/14 02:00:25;;;;;;;1.00;1.00;;;-7.70;99.90;;;;;;5059268;28;20090;-74
2022/12/14 02:03:11;;;;;;;0.95;0.95;;;-7.10;99.90;;;;;;5061573;28;20040;-73
2022/12/14 02:05:41;;;;;;;0.88;0.88;;;-7.20;99.90;;;;;;5047565;28;20052;-73
2022/12/14 02:08:08;;;;;;;0.90;0.90;;;-7.30;99.90;;;;;;5045948;28;20045;-74
2022/12/14 02:10:45;;;;;;;0.80;0.80;;;-7.30;99.90;;;;;;5045736;28;20051;-72
2022/12/14 02:13:16;;;;;;;1.02;1.00;;;-7.30;99.90;;;;;;5045943;28;20037;-74
2022/12/14 02:15:43;;;;;;;1.05;1.00;;;-7.30;99.90;;;;;;5045258;28;20079;-73
2022/12/14 02:18:16;;;;;;;0.93;0.93;;;-7.30;99.90;;;;;;5044890;28;20048;-74
2022/12/14 02:20:51;;;;;;;0.90;0.90;;;-7.40;99.90;;;;;;5058819;28;20082;-74
2022/12/14 02:23:35;;;;;;;1.00;1.00;;;-7.50;99.90;;;;;;5047636;28;20044;-74
2022/12/14 02:26:22;;;;;;;;;;;-7.50;99.90;;;;;;5050040;28;20051;-73
2022/12/14 02:29:03;;;;;;;0.90;0.90;;;-7.50;99.90;;;;;;5059545;28;19982;-74
2022/12/14 02:31:50;;;;;;;0.90;0.90;;;-7.50;99.90;;;;;;5044993;28;20534;-72
2022/12/14 02:34:27;;;;;;;;;;;-7.50;99.90;;;;;;5045941;28;20037;-73
2022/12/14 02:37:16;;;;;;;0.98;0.98;;;-7.60;99.90;;;;;;5045996;28;20393;-73
2022/12/14 02:40:05;;;;;;;1.20;1.10;;;-7.60;99.90;;;;;;5045674;28;20480;-74
2022/12/14 02:42:45;;;;;;;0.95;0.95;;;-7.70;99.90;;;;;;5044826;28;20052;-73
2022/12/14 02:45:56;;;;;;;1.13;1.02;;;-7.70;99.90;;;;;;5045570;28;20044;-73
2022/12/14 02:48:44;;;;;;;0.90;0.90;;;-7.80;99.90;;;;;;5047202;28;20047;-71
2022/12/14 02:51:30;;;;;;;1.30;1.20;;;-7.80;99.90;;;;;;5057292;28;20466;-72
2022/12/14 02:54:28;;;;;;;1.00;1.00;;;-7.80;99.90;;;;;;5060506;28;20086;-72
2022/12/14 02:57:20;;;;;;;1.30;1.20;;;-7.80;99.90;;;;;;5058206;28;20080;-72
2022/12/14 02:59:49;;;;;;;1.40;1.30;;;-7.90;99.90;;;;;;5059355;28;20109;-73
2022/12/14 03:02:15;;;;;;;1.25;1.15;;;-7.90;99.90;;;;;;5056975;28;20095;-73
2022/12/14 03:04:47;;;;;;;1.30;1.20;;;-8.00;99.90;;;;;;5048921;28;20064;-72
2022/12/14 03:07:25;;;;;;;1.15;1.05;;;-9.40;99.90;;;;;;5047338;28;20133;-72
2022/12/14 03:09:51;;;;;;;0.90;0.90;;;-8.00;99.90;;;;;;5049373;28;20053;-73
2022/12/14 03:12:19;;;;;;;0.90;0.90;;;-8.10;99.90;;;;;;5052186;28;20412;-73
2022/12/14 03:14:49;;;;;;;0.90;0.90;;;-8.00;99.90;;;;;;5047646;28;20045;-73
2022/12/14 03:17:19;;;;;;;1.10;1.05;;;-8.10;99.90;;;;;;5061672;28;20033;-72
2022/12/14 03:20:02;;;;;;;0.95;0.95;;;-8.40;99.90;;;;;;5051055;28;20048;-71
2022/12/14 03:22:35;;;;;;;0.80;0.80;;;-8.20;99.90;;;;;;5048741;28;20094;-72
2022/12/14 03:25:13;;;;;;;0.90;0.90;;;-8.10;99.90;;;;;;5054067;28;20051;-74
2022/12/14 03:27:46;;;;;;;1.30;1.20;;;-8.10;99.90;;;;;;5047152;28;20365;-71
2022/12/14 03:30:14;;;;;;;0.95;0.95;;;-8.00;99.90;;;;;;5060796;28;20044;-73
2022/12/14 03:32:46;;;;;;;0.90;0.90;;;-8.00;99.90;;;;;;5033557;28;20056;-73
2022/12/14 03:35:26;;;;;;;1.08;1.00;;;-8.10;99.90;;;;;;5045126;28;20048;-73
2022/12/14 03:38:33;;;;;;;0.90;0.90;;;-8.10;99.90;;;;;;5050829;28;20080;-72
2022/12/14 03:41:19;;;;;;;1.27;1.17;;;-8.70;99.90;;;;;;5058694;28;20052;-73
2022/12/14 03:43:55;;;;;;;1.20;1.10;;;-8.30;99.90;;;;;;5046778;28;20131;-72
2022/12/14 03:46:33;;;;;;;1.27;1.17;;;-8.30;99.90;;;;;;5047937;28;20051;-70
2022/12/14 03:49:29;;;;;;;1.00;1.00;;;-8.40;99.90;;;;;;5063977;28;20094;-73
2022/12/14 03:52:08;;;;;;;1.30;1.20;;;-8.30;99.90;;;;;;5050857;28;20033;-73
2022/12/14 03:54:48;;;;;;;1.13;1.02;;;-8.40;99.90;;;;;;5051195;28;20363;-73
2022/12/14 03:57:37;;;;;;;1.23;1.13;;;-8.40;99.90;;;;;;5064817;28;20101;-73
2022/12/14 04:00:10;;;;;;;1.17;1.08;;;-8.40;99.90;;;;;;5060228;28;20115;-71
2022/12/14 04:03:00;;;;;;;1.20;1.10;;;-8.40;99.90;;;;;;5060423;28;20068;-71
2022/12/14 04:05:35;;;;;;;1.20;1.10;;;-8.40;99.90;;;;;;5058984;28;20060;-72
2022/12/14 04:08:47;;;;;;;1.05;1.02;;;-8.40;99.90;;;;;;5063255;28;20048;-73
2022/12/14 04:19:45;;;;;;;;;;;-8.60;99.90;;;;;;5049128;28;20078;-72
2022/12/14 04:22:16;;;;;;;0.90;0.90;;;-8.60;99.90;;;;;;5059421;28;19979;-71
2022/12/14 04:28:00;;;;;;;1.00;1.00;;;-8.60;99.90;;;;;;5046191;28;20071;-71
2022/12/14 04:30:30;;;;;;;0.90;0.90;;;-8.60;99.90;;;;;;5060324;28;20054;-72
2022/12/14 04:35:56;;;;;;;1.08;1.00;;;-8.70;99.90;;;;;;5045548;28;20087;-71
2022/12/14 04:38:28;;;;;;;1.08;1.00;;;-8.70;99.90;;;;;;5030048;28;20049;-72
2022/12/14 04:41:02;;;;;;;0.90;0.90;;;-8.70;99.90;;;;;;5047300;28;20051;-72
2022/12/14 04:43:30;;;;;;;0.90;0.90;;;-8.70;99.90;;;;;;5048939;28;20135;-72
2022/12/14 04:46:23;;;;;;;1.00;1.00;;;-8.70;99.90;;;;;;5045399;28;20045;-72
2022/12/14 04:48:58;;;;;;;1.20;1.10;;;-8.70;99.90;;;;;;5048065;28;20057;-72
2022/12/14 04:51:47;;;;;;;0.95;0.95;;;-9.50;99.90;;;;;;5045550;28;20044;-74
2022/12/14 04:54:25;;;;;;;1.00;1.00;;;-8.70;99.90;;;;;;5046986;28;20139;-73
2022/12/14 04:56:59;;;;;;;1.20;1.10;;;-8.80;99.90;;;;;;5047232;28;20049;-73
2022/12/14 04:59:25;;;;;;;1.00;1.00;;;-8.80;99.90;;;;;;5046075;28;20052;-74
2022/12/14 05:02:07;;;;;;;1.30;1.20;;;-8.80;99.90;;;;;;5046417;28;20076;-72
2022/12/14 05:04:58;;;;;;;0.93;0.93;;;-8.80;99.90;;;;;;5047870;28;20987;-73
2022/12/14 05:07:35;;;;;;;1.08;1.05;;;-8.80;99.90;;;;;;5046713;28;20525;-74
2022/12/14 05:10:21;;;;;;;1.20;1.10;;;-8.80;99.90;;;;;;5046753;28;20055;-74
2022/12/14 05:13:13;;;;;;;1.10;1.05;;;-8.80;99.90;;;;;;5043964;28;20055;-73
2022/12/14 05:16:02;;;;;;;1.20;1.10;;;-8.80;99.90;;;;;;5046279;28;20410;-73
2022/12/14 05:18:27;;;;;;;1.00;1.00;;;-8.80;99.90;;;;;;5045131;28;20052;-73
2022/12/14 05:20:53;;;;;;;1.20;1.10;;;-8.80;99.90;;;;;;5058549;28;20045;-74
2022/12/14 05:23:19;;;;;;;0.95;0.95;;;-8.80;99.90;;;;;;5062080;28;20052;-72
2022/12/14 05:25:44;;;;;;;1.00;1.00;;;-8.80;99.90;;;;;;5030913;28;20037;-73
2022/12/14 05:28:11;;;;;;;1.30;1.20;;;-8.80;99.90;;;;;;5042587;28;20053;-72
2022/12/14 05:30:37;;;;;;;1.02;1.00;;;-8.60;99.90;;;;;;5045408;28;20052;-73
2022/12/14 05:33:03;;;;;;;1.30;1.20;;;-8.80;99.90;;;;;;5047249;28;20037;-73
2022/12/14 05:35:29;;;;;;;1.20;1.10;;;-8.80;99.90;;;;;;5060166;28;20052;-73
2022/12/14 05:37:54;;;;;;;1.20;1.10;;;-8.20;99.90;;;;;;5045492;28;20036;-73
2022/12/14 05:40:20;;;;;;;1.13;1.02;;;-8.80;99.90;;;;;;5044640;28;20057;-72
2022/12/14 05:42:46;;;;;;;0.93;0.93;;;-8.80;99.90;;;;;;5042008;28;20048;-72
2022/12/14 05:45:12;;;;;;;1.08;1.00;;;-8.80;99.90;;;;;;5046013;28;20071;-73
2022/12/14 05:47:40;;;;;;;0.95;0.95;;;-8.80;99.90;;;;;;5046472;28;20048;-72
2022/12/14 05:50:07;;;;;;;0.95;0.95;;;-8.80;99.90;;;;;;5045233;28;20363;-72
2022/12/14 05:52:33;;;;;;;1.08;1.00;;;-8.60;99.90;;;;;;5063113;28;20040;-74
2022/12/14 05:54:59;;;;;;;1.20;1.10;;;-8.80;99.90;;;;;;5049030;28;20051;-72
2022/12/14 05:57:25;;;;;;;1.23;1.13;;;-8.80;99.90;;;;;;5046052;28;20068;-73
2022/12/14 05:59:50;;;;;;;1.20;1.10;;;-8.80;99.90;;;;;;5045126;28;20382;-73
2022/12/14 06:02:16;;;;;;;1.30;1.20;;;-8.80;99.90;;;;;;5049660;28;20121;-72
2022/12/14 06:04:42;;;;;;;1.10;1.00;;;-8.90;99.90;;;;;;5045948;28;20072;-73
2022/12/14 06:07:11;;;;;;;1.00;1.00;;;-9.00;99.90;;;;;;5045650;28;20048;-72
2022/12/14 06:09:37;;;;;;;1.30;1.20;;;-9.00;99.90;;;;;;5043176;28;20057;-74
2022/12/14 06:12:03;;;;;;;1.20;1.10;;;-9.00;99.90;;;;;;5047865;28;20045;-72
2022/12/14 06:14:28;;;;;;;1.20;1.10;;;-9.00;99.90;;;;;;5044924;28;20524;-73
2022/12/14 06:16:54;;;;;;;0.90;0.90;;;-9.00;99.90;;;;;;5031256;28;20120;-73
2022/12/14 06:19:22;;;;;;;1.02;1.00;;;-9.10;99.90;;;;;;5048524;28;20370;-71
2022/12/14 06:21:47;;;;;;;1.40;1.30;;;-9.10;99.90;;;;;;5049932;28;20056;-72
2022/12/14 06:24:13;;;;;;;1.20;1.10;;;-9.10;99.90;;;;;;5045493;28;20662;-72
2022/12/14 06:26:45;;;;;;;1.15;1.05;;;-9.20;99.90;;;;;;5045111;28;20098;-72
2022/12/14 06:29:17;;;;;;;1.30;1.20;;;-9.20;99.90;;;;;;5048331;28;20048;-71
2022/12/14 06:31:44;;;;;;;1.20;1.10;;;-8.40;99.90;;;;;;5053139;28;20401;-72
2022/12/14 06:34:09;;;;;;;1.10;1.05;;;-9.20;99.90;;;;;;5044808;28;20045;-72
2022/12/14 06:36:41;;;;;;;1.25;1.15;;;-9.20;99.90;;;;;;5044193;28;20049;-71
2022/12/14 06:39:13;;;;;;;1.17;1.08;;;-9.30;99.90;;;;;;5048270;28;20049;-73
2022/12/14 06:41:39;;;;;;;0.98;0.98;;;-9.30;99.90;;;;;;5046841;28;20053;-73
2022/12/14 06:44:10;;;;;;;1.25;1.15;;;-9.30;99.90;;;;;;5048346;28;20044;-71
2022/12/14 06:46:37;;;;;;;1.20;1.10;;;-9.40;99.90;;;;;;5050837;28;20037;-73
2022/12/14 06:49:04;;;;;;;1.23;1.13;;;-9.40;99.90;;;;;;5053639;28;20187;-73
2022/12/14 06:51:31;;;;;;;1.20;1.10;;;-9.40;99.90;;;;;;5050639;28;20059;-73
2022/12/14 06:53:57;;;;;;;0.90;0.90;;;-9.40;99.90;;;;;;5047386;28;20132;-71
2022/12/14 06:56:25;;;;;;;1.20;1.10;;;-9.50;99.90;;;;;;5067493;28;20049;-73
2022/12/14 06:58:53;;;;;;;1.30;1.20;;;-9.50;99.90;;;;;;5049917;28;20052;-72
2022/12/14 07:01:21;;;;;;;1.40;1.30;;;-9.50;99.90;;;;;;5049374;28;20364;-72
2022/12/14 07:03:49;;;;;;;1.02;1.00;;;-9.50;99.90;;;;;;5050504;28;20056;-73
2022/12/14 07:06:15;;;;;;;1.20;1.10;;;-9.50;99.90;;;;;;5056391;28;20059;-72
2022/12/14 07:08:41;;;;;;;1.25;1.15;;;-9.40;99.90;;;;;;5071869;28;20071;-73
2022/12/14 07:11:10;;;;;;;1.17;1.08;;;-9.40;99.90;;;;;;5058740;28;20032;-72
2022/12/14 07:13:36;;;;;;;1.30;1.20;;;-9.40;99.90;;;;;;5059217;28;20040;-71
2022/12/14 07:16:04;;;;;;;1.00;1.00;;;-9.40;99.90;;;;;;5060481;28;20095;-72
2022/12/14 07:18:31;;;;;;;1.38;1.27;;;-9.50;99.90;;;;;;5057368;28;20135;-72
2022/12/14 07:21:10;;;;;;;1.20;1.10;;;-9.50;99.90;;;;;;5058693;28;20094;-72
2022/12/14 07:23:37;;;;;;;1.23;1.13;;;-9.60;99.90;;;;;;5069973;28;20036;-72
2022/12/14 07:26:30;;;;;;;1.20;1.10;;;-9.60;99.90;;;;;;5074278;28;20052;-71
2022/12/14 07:29:01;;;;;;;0.90;0.90;;;-9.60;99.90;;;;;;5058741;28;20672;-73
2022/12/14 07:31:27;;;;;;;1.30;1.20;;;-9.60;99.90;;;;;;5060183;28;20493;-72
2022/12/14 07:33:59;;;;;;;1.00;1.00;;;-9.60;99.90;;;;;;5060150;28;20048;-72
2022/12/14 07:36:27;;;;;;;1.20;1.10;;;-9.60;99.90;;;;;;5057625;28;20045;-71
2022/12/14 07:38:54;;;;;;;1.20;1.10;;;-9.60;99.90;;;;;;5057675;28;20039;-72
2022/12/14 07:41:29;;;;;;;0.90;0.90;;;-9.50;99.90;;;;;;5056947;28;20123;-72
2022/12/14 07:43:55;;;;;;;0.90;0.90;;;-9.60;99.90;;;;;;5058761;28;20055;-73
2022/12/14 07:46:23;;;;;;;1.20;1.10;;;-9.60;99.90;;;;;;5057323;28;20036;-72
2022/12/14 07:48:51;;;;;;;1.27;1.17;;;-9.60;99.90;;;;;;5055731;28;20056;-72
2022/12/14 07:51:20;;;;;;;1.30;1.20;;;-9.60;99.90;;;;;;5056641;28;20868;-73
2022/12/14 07:53:46;;;;;;;0.90;0.90;;;-9.60;99.90;;;;;;5059091;28;20032;-70
2022/12/14 07:56:21;;;;;;;1.30;1.20;;;-9.60;99.90;;;;;;5060083;28;20111;-71
2022/12/14 07:58:48;;;;;;;1.27;1.17;;;-9.60;99.90;;;;;;5060858;28;20048;-72
2022/12/14 08:01:15;;;;;;;1.30;1.20;;;-9.60;99.90;;;;;;5067191;28;20051;-72
2022/12/14 08:03:44;;;;;;;1.20;1.10;;;-9.60;99.90;;;;;;5043807;28;20125;-71
2022/12/14 08:06:11;;;;;;;1.13;1.05;;;-9.40;99.90;;;;;;5060339;28;20075;-71
2022/12/14 08:08:38;;;;;;;1.23;1.13;;;-9.60;99.90;;;;;;5057832;28;20044;-72
2022/12/14 08:11:04;;;;;;;1.40;1.30;;;-9.60;99.90;;;;;;5038376;28;20028;-72
2022/12/14 08:13:30;;;;;;;1.20;1.10;;;-9.50;99.90;;;;;;5059447;28;20040;-71
2022/12/14 08:16:00;;;;;;;1.20;1.10;;;-9.50;99.90;;;;;;5056380;28;20035;-72
2022/12/14 08:18:26;;;;;;;1.05;1.00;;;-9.40;99.90;;;;;;5058478;28;20666;-71
2022/12/14 08:20:52;;;;;;;0.90;0.90;;;-9.50;99.90;;;;;;5063937;28;20182;-71
2022/12/14 08:23:18;;;;;;;1.00;1.00;;;-9.40;99.90;;;;;;5044454;28;20044;-71
2022/12/14 08:25:44;;;;;;;1.10;1.02;;;-9.40;99.90;;;;;;5060206;28;20064;-72
2022/12/14 08:28:10;;;;;;;0.90;0.90;;;-9.40;99.90;;;;;;5063031;28;20044;-71
2022/12/14 08:30:39;;;;;;;1.30;1.20;;;-9.30;99.90;;;;;;5054461;28;20037;-72
2022/12/14 08:33:06;;;;;;;1.30;1.20;;;-9.20;99.90;;;;;;5052898;28;20047;-71
2022/12/14 08:35:32;;;;;;;1.00;1.00;;;-9.20;99.90;;;;;;5055126;28;20032;-73
2022/12/14 08:37:59;;;;;;;1.00;1.00;;;-9.10;99.90;;;;;;5055198;28;20051;-72
2022/12/14 08:40:24;;;;;;;1.20;1.10;;;-9.10;99.90;;;;;;5063562;28;20503;-72
2022/12/14 08:42:51;;;;;;;1.20;1.10;;;-9.00;99.90;;;;;;5062655;28;20724;-73
2022/12/14 08:45:17;;;;;;;1.30;1.20;;;-9.00;99.90;;;;;;5054771;28;20040;-72
2022/12/14 08:47:42;;;;;;;0.88;0.88;;;-8.90;99.90;;;;;;5057236;28;20083;-74
2022/12/14 08:50:09;;;;;;;1.30;1.20;;;-8.90;99.90;;;;;;5058627;28;20048;-71
2022/12/14 08:52:34;;;;;;;1.05;1.00;;;-8.80;99.90;;;;;;5063920;28;20037;-71
2022/12/14 08:55:00;;;;;;;1.08;1.00;;;-8.70;99.90;;;;;;5064165;28;20044;-71
2022/12/14 08:57:26;;;;;;;1.00;1.00;;;-8.50;99.90;;;;;;5055169;28;20064;-70
2022/12/14 08:59:51;;;;;;;0.90;0.90;;;-8.40;99.90;;;;;;5052925;28;20119;-71
2022/12/14 09:02:23;;;;;;;1.30;1.20;;;-8.30;99.90;;;;;;5060389;28;20041;-70
2022/12/14 09:04:49;;;;;;;1.20;1.10;;;-8.20;99.90;;;;;;5057657;28;20060;-74
2022/12/14 09:07:15;;;;;;;0.90;0.90;;;-8.10;99.90;;;;;;5054654;28;20083;-71
2022/12/14 09:09:41;;;;;;;0.98;0.98;;;-8.10;99.90;;;;;;5043788;28;20733;-70
2022/12/14 09:12:08;;;;;;;1.00;1.00;;;-8.00;99.90;;;;;;5053389;28;20063;-72
2022/12/14 09:14:34;;;;;;;0.98;0.98;;;-7.90;99.90;;;;;;5057846;28;20048;-72
2022/12/14 09:17:00;;;;;;;1.20;1.10;;;-7.90;99.90;;;;;;5050669;28;20081;-73
2022/12/14 09:19:26;;;;;;;1.05;1.00;;;-7.80;99.90;;;;;;5056609;28;20557;-74
2022/12/14 09:21:52;;;;;;;1.15;1.05;;;-7.70;99.90;;;;;;5054521;28;20604;-71
2022/12/14 09:24:20;;;;;;;1.20;1.10;;;-7.60;99.90;;;;;;5036136;28;20079;-75
2022/12/14 09:26:46;;;;;;;1.20;1.10;;;-7.60;99.90;;;;;;5053084;28;20064;-70
2022/12/14 09:29:17;;;;;;;0.90;0.90;;;-7.40;99.90;;;;;;5055383;28;20041;-73
2022/12/14 09:31:43;;;;;;;1.10;1.02;;;-7.30;99.90;;;;;;5056693;28;20052;-70
2022/12/14 09:34:09;;;;;;;0.80;0.80;;;-7.20;99.90;;;;;;5035586;28;20500;-72
2022/12/14 09:36:35;;;;;;;1.15;1.08;;;-7.00;99.90;;;;;;5053829;28;20047;-71
2022/12/14 09:39:02;;;;;;;2.95;2.75;;;-6.90;99.90;;;;;;5064295;28;20047;-72
2022/12/14 09:41:31;;;;;;;1.00;1.00;;;-6.80;99.90;;;;;;5063154;28;20055;-71
2022/12/14 09:44:22;;;;;;;1.00;1.00;;;-6.70;99.90;;;;;;5058690;28;20044;-73
2022/12/14 09:46:55;;;;;;;1.00;1.00;;;-6.60;99.90;;;;;;5064466;28;20051;-71
2022/12/14 09:49:46;;;;;;;0.93;0.93;;;-6.50;99.90;;;;;;5063253;28;20049;-73
2022/12/14 09:52:17;;;;;;;0.90;0.90;;;-6.30;99.90;;;;;;5064941;28;20052;-72
2022/12/14 09:54:46;;;;;;;0.90;0.90;;;-6.20;99.90;;;;;;5044961;28;20076;-72
2022/12/14 09:57:24;;;;;;;1.05;1.05;;;-6.00;99.90;;;;;;5072330;28;20055;-73
2022/12/14 09:59:53;;;;;;;1.00;1.00;;;-6.00;99.90;;;;;;5070729;28;20044;-72
2022/12/14 10:02:45;;;;;;;0.90;0.90;;;-5.90;99.90;;;;;;5051684;28;20049;-72
2022/12/14 10:05:55;;;;;;;1.00;1.00;;;-5.80;99.90;;;;;;5072814;28;20060;-75
2022/12/14 10:08:34;;;;;;;1.00;1.00;;;-5.70;99.90;;;;;;5058229;28;20052;-74
2022/12/14 10:11:17;;;;;;;0.90;0.90;;;-5.50;99.90;;;;;;5058315;28;20039;-74
2022/12/14 10:14:05;;;;;;;0.95;0.95;;;-5.40;99.90;;;;;;5060707;28;20527;-73
2022/12/14 10:16:54;;;;;;;0.90;0.90;;;-5.40;99.90;;;;;;5065232;28;20045;-73
2022/12/14 10:19:26;;;;;;;1.02;1.02;;;-5.30;99.90;;;;;;5062331;28;20127;-74
2022/12/14 10:22:14;;;;;;;0.90;0.90;;;-5.30;99.90;;;;;;5057081;28;20171;-74
2022/12/14 10:24:51;;;;;;;1.00;1.00;;;-5.20;99.90;;;;;;5072353;28;20094;-73
2022/12/14 10:27:22;;;;;;;0.90;0.90;;;-5.10;99.90;;;;;;5056450;28;20477;-74
2022/12/14 10:29:58;;;;;;;0.98;0.98;;;-5.00;99.90;;;;;;5064737;28;20143;-73
2022/12/14 10:32:33;;;;;;;1.13;1.10;;;-4.90;99.90;;;;;;5045996;28;20109;-74
2022/12/14 10:35:15;;;;;;;0.93;0.93;;;-4.90;99.90;;;;;;5063223;28;20539;-74
2022/12/14 10:38:02;;;;;;;1.08;1.08;;;-4.90;99.90;;;;;;5061889;28;20074;-74
2022/12/14 10:40:29;;;;;;;;;;;-4.80;99.90;;;;;;5061278;28;20098;-74
2022/12/14 10:43:16;;;;;;;0.90;0.90;;;-4.80;99.90;;;;;;5061522;28;19928;-73
2022/12/14 10:45:54;;;;;;;0.90;0.90;;;-4.70;99.90;;;;;;5070213;28;20593;-74
2022/12/14 10:48:41;;;;;;;0.90;0.90;;;-4.70;99.90;;;;;;5065259;28;20078;-74
2022/12/14 10:51:38;;;;;;;1.00;1.00;;;-4.60;99.90;;;;;;5057736;28;20071;-73
2022/12/14 10:54:30;;;;;;;1.30;1.20;;;-4.60;99.90;;;;;;5068057;28;20410;-73
2022/12/14 10:56:56;;;;;;;1.10;1.10;;;-4.50;99.90;;;;;;5053222;28;20056;-73
2022/12/14 10:59:22;;;;;;;;;;;-4.50;99.90;;;;;;5066510;28;20401;-74
2022/12/14 11:01:57;;;;;;;1.20;1.10;;;-4.40;99.90;;;;;;5070565;28;19921;-73
2022/12/14 11:04:31;;;;;;;1.60;1.50;;;-4.30;99.90;;;;;;5058859;28;20064;-74
2022/12/14 11:06:58;;;;;;;1.08;1.08;;;-4.20;99.90;;;;;;5064996;28;20102;-73
2022/12/14 11:09:25;;;;;;;0.80;0.80;;;-4.10;99.90;;;;;;5063024;28;20097;-74
2022/12/14 11:11:58;;;;;;;0.80;0.80;;;-4.00;99.90;;;;;;5056957;28;20040;-74
2022/12/14 11:14:24;;;;;;;2.55;2.45;;;-3.90;99.90;;;;;;5060810;28;20032;-74
2022/12/14 11:16:51;;;;;;;0.80;0.80;;;-3.80;99.90;;;;;;5057650;28;20109;-74
2022/12/14 11:19:23;;;;;;;0.90;0.90;;;-3.70;99.90;;;;;;5042867;28;20052;-74
2022/12/14 11:22:02;;;;;;;1.20;1.20;;;-3.60;99.90;;;;;;5063049;28;20115;-73
2022/12/14 11:24:28;;;;;;;0.93;0.93;;;-3.60;99.90;;;;;;5056059;28;20051;-73
2022/12/14 11:26:57;;;;;;;;;;;-3.60;99.90;;;;;;5043559;28;21649;-73
2022/12/14 11:29:36;;;;;;;0.90;0.90;;;-3.30;99.90;;;;;;5066521;28;19956;-73
2022/12/14 11:32:03;;;;;;;0.70;0.70;;;-3.60;99.90;;;;;;5067009;28;20072;-73
2022/12/14 11:34:33;;;;;;;0.80;0.80;;;-3.50;99.90;;;;;;5057858;28;20056;-73
2022/12/14 11:37:29;;;;;;;0.90;0.90;;;-3.40;99.90;;;;;;5058801;28;20041;-73
2022/12/14 11:40:06;;;;;;;0.85;0.85;;;-3.40;99.90;;;;;;5056205;28;20123;-74
2022/12/14 11:42:32;;;;;;;0.90;0.90;;;-3.40;99.90;;;;;;5050948;28;20131;-74
2022/12/14 11:45:18;;;;;;;1.08;1.08;;;-3.30;99.90;;;;;;5056366;28;20045;-74
2022/12/14 11:47:44;;;;;;;0.90;0.90;;;-3.20;99.90;;;;;;5054852;28;20051;-74
2022/12/14 11:50:25;;;;;;;0.85;0.85;;;-3.20;99.90;;;;;;5053498;28;20109;-73
2022/12/14 11:53:04;;;;;;;0.93;0.93;;;-3.10;99.90;;;;;;5065634;28;20044;-74
2022/12/14 11:55:35;;;;;;;0.80;0.80;;;-3.00;99.90;;;;;;5062629;28;20053;-74
2022/12/14 11:58:02;;;;;;;2.10;1.95;;;-2.90;99.90;;;;;;5073179;28;20143;-73
2022/12/14 12:00:46;;;;;;;1.17;1.17;;;-2.80;99.90;;;;;;5064290;28;20044;-73
2022/12/14 12:03:18;;;;;;;1.00;1.00;;;-2.70;99.90;;;;;;5080807;28;20513;-72
2022/12/14 12:05:51;;;;;;;3.38;2.15;;;-2.60;99.90;;;;;;5059918;28;20064;-74
2022/12/14 12:08:23;;;;;;;1.00;1.00;;;-2.50;99.90;;;;;;5065940;28;20546;-74
2022/12/14 12:10:51;;;;;;;0.80;0.80;;;-2.50;99.90;;;;;;5058268;28;20041;-74
2022/12/14 12:13:17;;;;;;;0.90;0.90;;;-2.50;99.90;;;;;;5057162;28;20492;-73
2022/12/14 12:15:49;;;;;;;1.55;1.48;;;-2.40;99.90;;;;;;5057044;28;20041;-73
2022/12/14 12:18:24;;;;;;;0.80;0.80;;;-2.20;99.90;;;;;;5058727;28;20033;-74
2022/12/14 12:21:01;;;;;;;1.70;1.60;;;-2.10;99.90;;;;;;5053582;28;20058;-73
2022/12/14 12:23:48;;;;;;;3.03;2.80;;;-2.00;99.90;;;;;;5053951;28;20093;-73
2022/12/14 12:26:38;;;;;;;0.80;0.80;;;-1.90;99.90;;;;;;5043561;28;20510;-74
2022/12/14 12:29:33;;;;;;;0.70;0.70;;;-1.80;99.90;;;;;;5038759;28;20068;-72
2022/12/14 12:32:06;;;;;;;0.80;0.80;;;-1.80;99.90;;;;;;5037048;28;20636;-72
2022/12/14 12:34:54;;;;;;;0.70;0.70;;;-1.80;99.90;;;;;;5044295;28;20064;-73
2022/12/14 12:37:50;;;;;;;1.55;1.45;;;-1.70;99.90;;;;;;5060964;28;20422;-73
2022/12/14 12:40:55;;;;;;;0.80;0.80;;;-1.70;99.90;;;;;;5055015;28;20068;-73
2022/12/14 12:43:32;;;;;;;1.10;1.10;;;-1.60;99.90;;;;;;5067609;28;20500;-74
2022/12/14 12:46:19;;;;;;;1.92;1.83;;;-1.50;99.90;;;;;;5065657;28;20122;-74
2022/12/14 12:49:04;;;;;;;1.58;1.48;;;-1.40;99.90;;;;;;5056199;28;20095;-73
2022/12/14 12:51:40;;;;;;;1.65;1.55;;;-1.40;99.90;;;;;;5052935;28;20083;-74
2022/12/14 12:54:12;;;;;;;3.03;1.80;;;-1.30;99.90;;;;;;5056189;28;20048;-74
2022/12/14 12:56:42;;;;;;;0.80;0.80;;;-1.30;99.90;;;;;;5059556;28;20033;-74
2022/12/14 12:59:32;;;;;;;0.80;0.80;;;-1.30;99.90;;;;;;5060292;28;20080;-74
2022/12/14 13:02:26;;;;;;;1.63;1.52;;;-1.30;99.90;;;;;;5058275;28;20040;-74
2022/12/14 13:04:53;;;;;;;1.90;1.80;;;-1.30;99.90;;;;;;5067199;28;20060;-73
2022/12/14 13:07:36;;;;;;;0.80;0.80;;;-1.40;99.90;;;;;;5053314;28;20049;-73
2022/12/14 13:10:29;;;;;;;0.75;0.75;;;-1.40;99.90;;;;;;5061279;28;20084;-73
2022/12/14 13:13:08;;;;;;;1.00;1.00;;;-1.40;99.90;;;;;;5059087;28;20393;-73
2022/12/14 13:15:42;;;;;;;0.80;0.80;;;-1.40;99.90;;;;;;5062294;28;20136;-73
2022/12/14 13:18:24;;;;;;;1.98;1.73;;;-1.30;99.90;;;;;;5056400;28;20044;-73
2022/12/14 13:20:54;;;;;;;0.80;0.80;;;-1.20;99.90;;;;;;5055976;28;20065;-73
2022/12/14 13:23:21;;;;;;;2.53;2.42;;;-1.10;99.90;;;;;;5065695;28;20392;-74
2022/12/14 13:26:14;;;;;;;1.55;1.45;;;-1.10;99.90;;;;;;5047306;28;20053;-74
2022/12/14 13:28:56;;;;;;;1.20;1.15;;;-1.10;99.90;;;;;;5049406;28;20044;-74
2022/12/14 13:31:49;;;;;;;1.15;1.13;;;-1.10;99.90;;;;;;5050885;28;20040;-73
2022/12/14 13:34:32;;;;;;;9.32;7.05;;;-1.20;99.90;;;;;;5052535;28;20464;-74
2022/12/14 13:37:07;;;;;;;0.82;0.82;;;-1.30;99.90;;;;;;5052858;28;20373;-73